Time;durP1;ratioP1;P1;durP2;ratioP2;P2;SDS_P1;SDS_P2;PMS_P1;PMS_P2;Temp;Humidity;BMP_temperature;BMP_pressure;BME280_temperature;BME280_humidity;BME280_pressure;Samples;Min_cycle;Max_cycle;Signal;HPM_P1;HPM_P2
2022/09/15 00:00:23;;;;;;;17.85;10.68;;;13.80;99.90;;;;;;5110460;27;20032;-70
2022/09/15 00:02:48;;;;;;;19.40;11.20;;;13.80;99.90;;;;;;5091344;28;20732;-71
2022/09/15 00:05:14;;;;;;;16.67;10.23;;;13.80;99.90;;;;;;5096094;27;20031;-70
2022/09/15 00:07:40;;;;;;;20.13;10.70;;;13.80;99.90;;;;;;5120746;27;20385;-71
2022/09/15 00:10:06;;;;;;;17.30;10.65;;;13.80;99.90;;;;;;5116387;27;20027;-70
2022/09/15 00:12:32;;;;;;;17.83;11.13;;;13.80;99.90;;;;;;5105558;28;20054;-73
2022/09/15 00:14:59;;;;;;;16.35;10.68;;;13.80;99.90;;;;;;5089091;28;20032;-70
2022/09/15 00:17:25;;;;;;;17.35;11.10;;;13.70;99.90;;;;;;5088014;28;20042;-70
2022/09/15 00:19:51;;;;;;;16.48;11.57;;;13.70;99.90;;;;;;5092210;28;20023;-70
2022/09/15 00:22:18;;;;;;;17.15;11.10;;;13.70;99.90;;;;;;5090127;28;20030;-70
2022/09/15 00:24:45;;;;;;;19.23;10.55;;;13.60;99.90;;;;;;5104084;28;20052;-70
2022/09/15 00:27:10;;;;;;;20.10;11.27;;;13.60;99.90;;;;;;5090269;28;20378;-69
2022/09/15 00:29:36;;;;;;;17.60;10.90;;;13.60;99.90;;;;;;5088377;28;20092;-70
2022/09/15 00:32:02;;;;;;;16.38;10.15;;;13.60;99.90;;;;;;5109576;28;20050;-70
2022/09/15 00:34:28;;;;;;;15.57;10.10;;;13.60;99.90;;;;;;5087871;28;20032;-73
2022/09/15 00:36:54;;;;;;;16.60;10.32;;;13.60;99.90;;;;;;5109378;28;20035;-71
2022/09/15 00:39:19;;;;;;;20.63;11.07;;;13.50;99.90;;;;;;5108194;28;20031;-70
2022/09/15 00:41:45;;;;;;;16.65;10.27;;;13.50;99.90;;;;;;5090536;28;20526;-70
2022/09/15 00:44:35;;;;;;;15.10;10.07;;;13.50;99.90;;;;;;5116205;27;20037;-70
2022/09/15 00:47:02;;;;;;;16.02;10.18;;;13.50;99.90;;;;;;5096629;28;20051;-70
2022/09/15 00:49:33;;;;;;;18.73;10.98;;;13.40;99.90;;;;;;5089222;28;20032;-70
2022/09/15 00:52:04;;;;;;;19.00;10.02;;;13.40;99.90;;;;;;5090882;28;20043;-70
2022/09/15 00:54:45;;;;;;;15.13;10.98;;;13.40;99.90;;;;;;5091218;28;20035;-71
2022/09/15 00:57:24;;;;;;;20.92;10.98;;;13.40;99.90;;;;;;5110214;28;20032;-70
2022/09/15 00:59:51;;;;;;;17.08;10.27;;;13.40;99.90;;;;;;5086908;28;20043;-70
2022/09/15 01:02:28;;;;;;;15.80;10.85;;;13.30;99.90;;;;;;5107305;28;20111;-71
2022/09/15 01:04:56;;;;;;;17.02;10.50;;;13.40;99.90;;;;;;5090588;28;20063;-71
2022/09/15 01:07:30;;;;;;;17.63;11.73;;;13.30;99.90;;;;;;5110150;27;20043;-69
2022/09/15 01:10:01;;;;;;;19.48;12.10;;;13.30;99.90;;;;;;5107945;28;20028;-70
2022/09/15 01:12:27;;;;;;;25.02;12.07;;;13.30;99.90;;;;;;5080888;28;20032;-70
2022/09/15 01:14:53;;;;;;;21.00;12.05;;;13.30;99.90;;;;;;5098224;28;20040;-71
2022/09/15 01:17:50;;;;;;;18.77;12.23;;;13.20;99.90;;;;;;5107151;28;20035;-70
2022/09/15 01:20:37;;;;;;;19.60;11.73;;;13.30;99.90;;;;;;5104373;28;20114;-70
2022/09/15 01:23:15;;;;;;;18.60;11.23;;;13.20;99.90;;;;;;5105288;27;20165;-71
2022/09/15 01:26:13;;;;;;;21.60;11.98;;;13.20;99.90;;;;;;5106871;27;20043;-71
2022/09/15 01:29:17;;;;;;;17.58;12.18;;;13.10;99.90;;;;;;5108751;27;20039;-70
2022/09/15 01:34:43;;;;;;;20.42;11.65;;;13.00;99.90;;;;;;5106770;28;20047;-70
2022/09/15 01:37:14;;;;;;;21.05;11.85;;;13.00;99.90;;;;;;5101635;27;20119;-71
2022/09/15 01:39:44;;;;;;;19.08;12.27;;;13.00;99.90;;;;;;5122889;27;20107;-71
2022/09/15 01:42:14;;;;;;;18.50;12.35;;;13.00;99.90;;;;;;5106460;27;20032;-70
2022/09/15 01:44:56;;;;;;;17.98;11.25;;;12.90;99.90;;;;;;5111373;27;20027;-70
2022/09/15 01:47:24;;;;;;;22.40;12.13;;;12.90;99.90;;;;;;5111903;27;20051;-72
2022/09/15 01:50:04;;;;;;;19.23;12.32;;;12.90;99.90;;;;;;5114176;27;20041;-71
2022/09/15 01:52:32;;;;;;;18.20;12.20;;;12.90;99.90;;;;;;5107363;28;20374;-70
2022/09/15 01:55:02;;;;;;;20.55;12.13;;;12.90;99.90;;;;;;5090475;28;20035;-70
2022/09/15 01:57:28;;;;;;;20.20;12.00;;;12.90;99.90;;;;;;5114092;27;20456;-70
2022/09/15 01:59:54;;;;;;;17.05;11.00;;;12.90;99.90;;;;;;5104544;27;20717;-70
2022/09/15 02:02:36;;;;;;;17.88;12.55;;;12.90;99.90;;;;;;5086856;28;20032;-70
2022/09/15 02:05:19;;;;;;;19.35;12.57;;;12.90;99.90;;;;;;5086417;28;20381;-70
2022/09/15 02:08:18;;;;;;;15.73;11.57;;;12.90;99.90;;;;;;5083991;28;20083;-69
2022/09/15 02:10:55;;;;;;;16.70;12.18;;;12.90;99.90;;;;;;5107756;27;20081;-69
2022/09/15 02:13:38;;;;;;;17.77;12.52;;;12.90;99.90;;;;;;5093300;28;20738;-70
2022/09/15 02:16:18;;;;;;;15.32;12.40;;;12.90;99.90;;;;;;5113061;27;20431;-72
2022/09/15 02:19:10;;;;;;;18.50;12.68;;;12.90;99.90;;;;;;5088793;28;20085;-70
2022/09/15 02:21:52;;;;;;;21.80;13.32;;;12.90;99.90;;;;;;5106445;28;20031;-71
2022/09/15 02:24:25;;;;;;;20.52;12.50;;;12.90;99.90;;;;;;5103895;28;20392;-70
2022/09/15 02:26:53;;;;;;;25.35;13.82;;;12.90;99.90;;;;;;5089153;28;20104;-71
2022/09/15 02:29:23;;;;;;;17.00;12.68;;;12.90;99.90;;;;;;5090865;28;20031;-69
2022/09/15 02:31:52;;;;;;;23.73;12.95;;;12.90;99.90;;;;;;5100231;28;20036;-70
2022/09/15 02:34:24;;;;;;;21.88;12.70;;;12.90;99.90;;;;;;5106321;28;20036;-69
2022/09/15 02:36:52;;;;;;;18.73;13.18;;;12.90;99.90;;;;;;5106993;28;20059;-70
2022/09/15 02:39:22;;;;;;;21.95;12.75;;;12.90;99.90;;;;;;5106726;28;20028;-70
2022/09/15 02:41:47;;;;;;;;;;;12.90;99.90;;;;;;5104325;28;20119;-70
2022/09/15 02:44:14;;;;;;;17.55;12.13;;;12.90;99.90;;;;;;5111045;28;19994;-70
2022/09/15 02:46:40;;;;;;;18.60;12.38;;;12.90;99.90;;;;;;5088603;28;20770;-71
2022/09/15 02:49:06;;;;;;;20.67;12.65;;;12.90;99.90;;;;;;5085141;28;20035;-70
2022/09/15 02:51:32;;;;;;;19.70;12.10;;;12.90;99.90;;;;;;5089426;28;20027;-69
2022/09/15 02:53:58;;;;;;;16.75;12.02;;;12.90;99.90;;;;;;5105988;28;20554;-71
2022/09/15 02:56:24;;;;;;;18.48;11.55;;;12.90;99.90;;;;;;5088143;28;20040;-70
2022/09/15 02:58:50;;;;;;;17.40;11.40;;;12.90;99.90;;;;;;5106431;28;20024;-70
2022/09/15 03:01:16;;;;;;;16.25;11.05;;;12.90;99.90;;;;;;5108129;28;20066;-70
2022/09/15 03:03:43;;;;;;;14.77;11.65;;;12.90;99.90;;;;;;5102884;28;20038;-69
2022/09/15 03:06:15;;;;;;;18.42;11.52;;;12.90;99.90;;;;;;5120858;28;20031;-69
2022/09/15 03:08:57;;;;;;;19.25;11.75;;;12.90;99.90;;;;;;5101976;28;20118;-70
2022/09/15 03:11:25;;;;;;;17.50;12.02;;;12.90;99.90;;;;;;5102710;28;20035;-70
2022/09/15 03:13:56;;;;;;;20.63;11.52;;;12.90;99.90;;;;;;5088318;28;20088;-70
2022/09/15 03:16:23;;;;;;;18.42;11.65;;;12.90;99.90;;;;;;5110669;28;20831;-70
2022/09/15 03:18:49;;;;;;;19.98;12.43;;;12.90;99.90;;;;;;5108553;28;20072;-70
2022/09/15 03:21:16;;;;;;;17.42;12.15;;;12.90;99.90;;;;;;5101106;28;20108;-71
2022/09/15 03:23:42;;;;;;;17.25;11.93;;;12.90;99.90;;;;;;5081489;28;20046;-69
2022/09/15 03:26:09;;;;;;;17.20;11.23;;;12.90;99.90;;;;;;5118932;28;20443;-70
2022/09/15 03:28:36;;;;;;;16.67;11.73;;;12.90;99.90;;;;;;5127295;28;20045;-71
2022/09/15 03:31:02;;;;;;;17.70;11.77;;;12.90;99.90;;;;;;5111465;28;20042;-69
2022/09/15 03:33:28;;;;;;;17.50;11.20;;;12.90;99.90;;;;;;5102644;28;20032;-70
2022/09/15 03:35:55;;;;;;;15.63;11.32;;;12.90;99.90;;;;;;5086174;28;20058;-69
2022/09/15 03:38:21;;;;;;;17.58;12.18;;;12.90;99.90;;;;;;5114354;27;20073;-70
2022/09/15 03:41:00;;;;;;;16.40;11.75;;;12.90;99.90;;;;;;5130581;27;20067;-71
2022/09/15 03:43:27;;;;;;;19.38;11.95;;;12.90;99.90;;;;;;5105152;28;20633;-69
2022/09/15 03:45:53;;;;;;;16.38;12.15;;;12.90;99.90;;;;;;5091586;28;20044;-70
2022/09/15 03:48:19;;;;;;;15.40;12.15;;;12.90;99.90;;;;;;5092104;28;20138;-70
2022/09/15 03:50:45;;;;;;;18.20;13.07;;;12.90;99.90;;;;;;5111865;27;20118;-69
2022/09/15 03:53:10;;;;;;;15.35;10.88;;;12.90;99.90;;;;;;5106277;28;20587;-70
2022/09/15 03:55:36;;;;;;;16.02;11.43;;;12.90;99.90;;;;;;5091098;28;20425;-69
2022/09/15 03:58:02;;;;;;;16.17;11.93;;;12.90;99.90;;;;;;5102448;27;20107;-70
2022/09/15 04:00:28;;;;;;;14.95;12.02;;;12.90;99.90;;;;;;5106924;28;20035;-70
2022/09/15 04:02:53;;;;;;;16.50;11.45;;;12.90;99.90;;;;;;5081027;28;20039;-69
2022/09/15 04:05:19;;;;;;;17.83;11.60;;;12.90;99.90;;;;;;5106579;28;20032;-71
2022/09/15 04:07:45;;;;;;;15.77;10.70;;;12.90;99.90;;;;;;5107718;28;20039;-72
2022/09/15 04:10:10;;;;;;;15.45;11.30;;;12.90;99.90;;;;;;5110346;28;20042;-69
2022/09/15 04:12:36;;;;;;;14.95;11.07;;;12.90;99.90;;;;;;5091658;28;20107;-70
2022/09/15 04:15:02;;;;;;;15.35;10.75;;;12.90;99.90;;;;;;5110445;27;20036;-69
2022/09/15 04:17:28;;;;;;;17.55;11.88;;;12.90;99.90;;;;;;5108951;28;20106;-69
2022/09/15 04:19:54;;;;;;;17.67;11.75;;;12.90;99.90;;;;;;5110642;28;20115;-71
2022/09/15 04:22:20;;;;;;;14.18;11.05;;;12.90;99.90;;;;;;5090766;28;20072;-69
2022/09/15 04:24:48;;;;;;;15.38;11.63;;;12.90;99.90;;;;;;5108797;28;20036;-69
2022/09/15 04:27:15;;;;;;;15.57;11.98;;;13.00;99.90;;;;;;5104272;28;20119;-70
2022/09/15 04:29:41;;;;;;;16.42;12.23;;;12.90;99.90;;;;;;5098780;28;20143;-70
2022/09/15 04:32:07;;;;;;;17.92;12.23;;;13.00;99.90;;;;;;5087596;28;20051;-69
2022/09/15 04:34:33;;;;;;;18.42;11.73;;;13.00;99.90;;;;;;5091768;28;20028;-71
2022/09/15 04:36:58;;;;;;;17.98;12.13;;;13.00;99.90;;;;;;5089044;28;20047;-71
2022/09/15 04:39:24;;;;;;;17.33;11.95;;;13.00;99.90;;;;;;5106725;28;20032;-70
2022/09/15 04:41:50;;;;;;;17.13;11.88;;;13.00;99.90;;;;;;5104957;28;20064;-70
2022/09/15 04:44:16;;;;;;;19.17;12.43;;;13.00;99.90;;;;;;5089778;28;20107;-70
2022/09/15 04:46:41;;;;;;;17.13;12.13;;;13.00;99.90;;;;;;5072601;28;20101;-70
2022/09/15 04:49:07;;;;;;;18.23;12.18;;;13.00;99.90;;;;;;5104336;27;20037;-70
2022/09/15 04:51:32;;;;;;;17.38;12.70;;;13.00;99.90;;;;;;5108639;28;20084;-69
2022/09/15 04:53:58;;;;;;;18.75;12.10;;;13.00;99.90;;;;;;5102322;27;20043;-69
2022/09/15 04:56:25;;;;;;;16.67;12.07;;;13.00;99.90;;;;;;5110996;27;20058;-69
2022/09/15 04:58:53;;;;;;;16.27;11.40;;;13.00;99.90;;;;;;5097685;27;20751;-69
2022/09/15 05:01:29;;;;;;;18.80;12.30;;;13.00;99.90;;;;;;5127806;27;20412;-73
2022/09/15 05:03:54;;;;;;;17.58;12.77;;;13.00;99.90;;;;;;5129441;27;20034;-69
2022/09/15 05:06:23;;;;;;;21.05;12.70;;;13.00;99.90;;;;;;5111129;27;20028;-73
2022/09/15 05:08:50;;;;;;;22.02;12.70;;;13.00;99.90;;;;;;5106187;27;20030;-70
2022/09/15 05:11:17;;;;;;;19.17;13.30;;;13.00;99.90;;;;;;5104887;27;20042;-69
2022/09/15 05:13:43;;;;;;;21.13;13.85;;;13.00;99.90;;;;;;5099504;28;20180;-73
2022/09/15 05:16:19;;;;;;;17.40;13.63;;;13.00;99.90;;;;;;5090179;28;20046;-69
2022/09/15 05:18:46;;;;;;;19.95;13.27;;;13.00;99.90;;;;;;5089229;28;20036;-69
2022/09/15 05:21:14;;;;;;;17.67;13.68;;;13.00;99.90;;;;;;5074254;28;20031;-69
2022/09/15 05:23:40;;;;;;;18.98;13.13;;;12.90;99.90;;;;;;5109230;27;20381;-69
2022/09/15 05:26:10;;;;;;;19.55;13.07;;;12.90;99.90;;;;;;5087388;28;20031;-70
2022/09/15 05:28:37;;;;;;;16.45;12.57;;;12.90;99.90;;;;;;5106342;28;20032;-68
2022/09/15 05:31:16;;;;;;;18.77;13.40;;;12.90;99.90;;;;;;5104452;28;20422;-70
2022/09/15 05:33:43;;;;;;;19.65;13.30;;;12.90;99.90;;;;;;5084491;28;20031;-70
2022/09/15 05:36:09;;;;;;;19.77;13.95;;;12.90;99.90;;;;;;5088727;27;20084;-70
2022/09/15 05:38:35;;;;;;;19.90;13.48;;;12.90;99.90;;;;;;5089508;28;20458;-69
2022/09/15 05:41:02;;;;;;;19.73;13.43;;;12.90;99.90;;;;;;5105380;28;20040;-69
2022/09/15 05:43:31;;;;;;;19.33;13.25;;;12.90;99.90;;;;;;5102440;28;20055;-68
2022/09/15 05:45:56;;;;;;;20.73;14.60;;;12.90;99.90;;;;;;5109332;27;20619;-68
2022/09/15 05:48:23;;;;;;;19.92;13.32;;;12.90;99.90;;;;;;5103931;28;20039;-70
2022/09/15 05:50:50;;;;;;;24.80;14.60;;;12.90;99.90;;;;;;5103564;28;20034;-68
2022/09/15 05:53:16;;;;;;;20.65;13.55;;;12.90;99.90;;;;;;5106253;28;20031;-68
2022/09/15 05:55:42;;;;;;;22.08;13.80;;;12.90;99.90;;;;;;5106056;27;20038;-69
2022/09/15 05:58:08;;;;;;;20.40;14.20;;;12.90;99.90;;;;;;5104676;28;20027;-71
2022/09/15 06:00:34;;;;;;;17.48;12.63;;;12.90;99.90;;;;;;5097991;28;20040;-69
2022/09/15 06:03:00;;;;;;;20.73;13.65;;;12.90;99.90;;;;;;5102222;28;20035;-68
2022/09/15 06:05:26;;;;;;;21.50;14.27;;;12.90;99.90;;;;;;5103645;28;20511;-69
2022/09/15 06:07:53;;;;;;;21.60;13.80;;;12.90;99.90;;;;;;5107364;28;20065;-70
2022/09/15 06:10:21;;;;;;;20.20;14.57;;;12.90;99.90;;;;;;5094064;28;20468;-69
2022/09/15 06:12:47;;;;;;;20.58;13.43;;;12.90;99.90;;;;;;5105623;27;20032;-68
2022/09/15 06:15:13;;;;;;;21.73;13.98;;;12.90;99.90;;;;;;5097586;28;20062;-70
2022/09/15 06:17:39;;;;;;;18.98;14.32;;;12.90;99.90;;;;;;5076912;28;20490;-71
2022/09/15 06:20:06;;;;;;;20.77;13.00;;;12.90;99.90;;;;;;5099808;27;20109;-69
2022/09/15 06:22:32;;;;;;;21.25;14.40;;;12.90;99.90;;;;;;5109728;27;20030;-69
2022/09/15 06:24:58;;;;;;;21.55;14.25;;;13.00;99.90;;;;;;5083802;28;20114;-70
2022/09/15 06:27:24;;;;;;;20.30;14.18;;;13.00;99.90;;;;;;5105845;28;20031;-69
2022/09/15 06:29:50;;;;;;;18.13;13.60;;;13.00;99.90;;;;;;5083055;28;20044;-70
2022/09/15 06:32:16;;;;;;;19.02;14.85;;;13.00;99.90;;;;;;5097092;28;20027;-69
2022/09/15 06:34:42;;;;;;;20.95;15.02;;;13.00;99.90;;;;;;5094379;28;20034;-69
2022/09/15 06:37:08;;;;;;;19.80;14.05;;;13.00;99.90;;;;;;5073281;28;20028;-69
2022/09/15 06:39:34;;;;;;;17.45;12.38;;;13.00;99.90;;;;;;5083990;28;20070;-69
2022/09/15 06:42:00;;;;;;;17.23;13.63;;;13.00;99.90;;;;;;5083037;28;20071;-69
2022/09/15 06:44:26;;;;;;;17.15;12.93;;;13.10;99.90;;;;;;5086462;28;20032;-69
2022/09/15 06:46:52;;;;;;;20.00;14.05;;;13.00;99.90;;;;;;5099804;28;20461;-69
2022/09/15 06:49:18;;;;;;;17.42;13.63;;;13.10;99.90;;;;;;5100818;28;20038;-69
2022/09/15 06:51:44;;;;;;;20.40;14.02;;;13.10;99.90;;;;;;5083585;28;20535;-69
2022/09/15 06:54:10;;;;;;;18.38;13.55;;;13.20;99.90;;;;;;5089646;28;20413;-69
2022/09/15 06:56:36;;;;;;;19.38;14.13;;;13.20;99.90;;;;;;5110015;28;20027;-70
2022/09/15 06:59:02;;;;;;;19.80;13.30;;;13.20;99.90;;;;;;5086097;28;20112;-69
2022/09/15 07:01:31;;;;;;;20.13;13.80;;;13.20;99.90;;;;;;5083532;28;20438;-72
2022/09/15 07:03:58;;;;;;;19.15;13.70;;;13.20;99.90;;;;;;5111018;28;20126;-71
2022/09/15 07:06:27;;;;;;;17.23;12.57;;;13.30;99.90;;;;;;5087227;28;20035;-70
2022/09/15 07:08:53;;;;;;;20.17;12.57;;;13.30;99.90;;;;;;5086752;28;20131;-71
2022/09/15 07:11:19;;;;;;;20.75;12.80;;;13.30;99.90;;;;;;5103280;28;20735;-70
2022/09/15 07:13:47;;;;;;;18.98;12.90;;;13.40;99.90;;;;;;5099543;28;20397;-70
2022/09/15 07:16:13;;;;;;;17.73;12.20;;;13.40;99.90;;;;;;5105774;28;20039;-70
2022/09/15 07:18:39;;;;;;;17.58;12.10;;;13.30;99.90;;;;;;5113915;27;20035;-70
2022/09/15 07:21:07;;;;;;;16.23;12.20;;;13.40;99.90;;;;;;5108144;27;20032;-70
2022/09/15 07:23:34;;;;;;;21.13;12.82;;;13.40;99.90;;;;;;5109140;28;20034;-69
2022/09/15 07:26:15;;;;;;;15.63;12.30;;;13.40;99.90;;;;;;5093801;27;20129;-69
2022/09/15 07:28:43;;;;;;;18.85;12.68;;;13.40;99.90;;;;;;5093784;27;20489;-69
2022/09/15 07:31:11;;;;;;;20.65;12.88;;;13.50;99.90;;;;;;5111557;28;20023;-69
2022/09/15 07:33:37;;;;;;;15.85;12.18;;;13.50;99.90;;;;;;5093391;28;20039;-69
2022/09/15 07:36:05;;;;;;;17.30;12.68;;;13.50;99.90;;;;;;5106148;28;20038;-69
2022/09/15 07:38:31;;;;;;;16.92;12.38;;;13.50;99.90;;;;;;5108523;28;20042;-70
2022/09/15 07:41:11;;;;;;;21.02;13.23;;;13.60;99.90;;;;;;5104254;28;20031;-70
2022/09/15 07:43:37;;;;;;;16.42;12.10;;;13.60;99.90;;;;;;5085927;28;20071;-69
2022/09/15 07:46:04;;;;;;;19.23;12.55;;;13.70;99.90;;;;;;5104837;28;20087;-69
2022/09/15 07:48:30;;;;;;;18.92;11.88;;;13.70;99.90;;;;;;5083942;28;20105;-70
2022/09/15 07:50:58;;;;;;;17.38;12.43;;;13.70;99.90;;;;;;5100405;28;20036;-69
2022/09/15 07:53:26;;;;;;;15.15;12.07;;;13.80;99.90;;;;;;5091269;28;20050;-68
2022/09/15 07:55:53;;;;;;;16.80;11.52;;;13.80;99.90;;;;;;5092049;28;20016;-69
2022/09/15 07:58:19;;;;;;;15.63;11.38;;;13.80;99.90;;;;;;5110277;28;20053;-69
2022/09/15 08:00:46;;;;;;;16.23;11.18;;;13.80;99.90;;;;;;5111781;27;20031;-69
2022/09/15 08:03:12;;;;;;;18.10;11.57;;;13.80;99.90;;;;;;5111081;28;20061;-68
2022/09/15 08:05:37;;;;;;;15.80;10.80;;;13.90;99.90;;;;;;5091176;28;20559;-69
2022/09/15 08:08:03;;;;;;;14.65;11.13;;;13.90;99.90;;;;;;5109847;28;20159;-70
2022/09/15 08:10:29;;;;;;;13.27;9.80;;;14.00;99.90;;;;;;5109707;28;20515;-70
2022/09/15 08:12:57;;;;;;;13.82;9.65;;;14.10;99.90;;;;;;5110544;28;20147;-69
2022/09/15 08:15:22;;;;;;;15.07;10.43;;;14.10;99.90;;;;;;5100364;28;20104;-69
2022/09/15 08:17:48;;;;;;;13.73;9.80;;;14.20;99.90;;;;;;5109772;28;20047;-69
2022/09/15 08:20:14;;;;;;;14.70;10.20;;;14.20;99.90;;;;;;5107685;28;20058;-68
2022/09/15 08:22:40;;;;;;;18.48;9.98;;;14.20;99.90;;;;;;5109483;28;20023;-69
2022/09/15 08:25:06;;;;;;;14.60;9.90;;;14.30;99.90;;;;;;5108101;28;20024;-71
2022/09/15 08:27:32;;;;;;;12.82;10.00;;;14.30;99.90;;;;;;5109742;28;20413;-72
2022/09/15 08:29:58;;;;;;;14.50;10.00;;;14.30;99.90;;;;;;5109907;28;20123;-69
2022/09/15 08:32:23;;;;;;;12.93;9.00;;;14.40;99.90;;;;;;5108942;28;20039;-70
2022/09/15 08:34:49;;;;;;;12.63;9.60;;;14.50;99.90;;;;;;5109923;28;20039;-70
2022/09/15 08:37:15;;;;;;;13.82;9.45;;;14.70;99.90;;;;;;5107264;28;20034;-69
2022/09/15 08:39:41;;;;;;;10.88;8.48;;;14.90;99.90;;;;;;5109729;28;20042;-70
2022/09/15 08:42:14;;;;;;;11.02;8.48;;;15.10;99.90;;;;;;5106889;28;20036;-70
2022/09/15 08:44:54;;;;;;;11.82;8.30;;;15.20;99.90;;;;;;5090160;28;20139;-70
2022/09/15 08:47:28;;;;;;;11.45;8.27;;;15.40;99.90;;;;;;5108260;28;20112;-71
2022/09/15 08:50:10;;;;;;;11.38;7.63;;;15.40;99.90;;;;;;5090956;28;20035;-69
2022/09/15 08:52:53;;;;;;;13.30;7.80;;;15.40;99.90;;;;;;5091432;28;20035;-69
2022/09/15 08:55:39;;;;;;;13.38;7.40;;;15.40;99.90;;;;;;5088736;28;20032;-70
2022/09/15 08:58:07;;;;;;;12.25;7.25;;;15.40;99.90;;;;;;5078412;28;20044;-70
2022/09/15 09:00:33;;;;;;;10.93;6.70;;;15.40;99.90;;;;;;5089478;28;20027;-70
2022/09/15 09:03:17;;;;;;;10.60;6.68;;;15.40;99.90;;;;;;5089263;28;20666;-70
2022/09/15 09:06:18;;;;;;;11.75;6.63;;;15.50;99.90;;;;;;5071084;28;20119;-71
2022/09/15 09:09:02;;;;;;;16.10;7.55;;;15.60;99.90;;;;;;5088509;28;20497;-70
2022/09/15 09:11:57;;;;;;;12.48;7.18;;;15.70;99.90;;;;;;5071048;28;20393;-70
2022/09/15 09:14:43;;;;;;;12.52;7.28;;;15.70;99.90;;;;;;5089324;28;20085;-70
2022/09/15 09:17:40;;;;;;;12.45;7.03;;;15.70;99.90;;;;;;5074578;28;20124;-69
2022/09/15 09:20:18;;;;;;;11.02;5.68;;;15.90;99.90;;;;;;5088906;28;20047;-70
2022/09/15 09:22:47;;;;;;;11.18;5.85;;;16.00;99.90;;;;;;5089711;28;20069;-70
2022/09/15 09:25:16;;;;;;;10.40;5.35;;;16.00;99.90;;;;;;5088936;28;20390;-70
2022/09/15 09:27:42;;;;;;;11.00;5.17;;;16.00;99.90;;;;;;5089101;28;20052;-69
2022/09/15 09:30:16;;;;;;;11.10;5.43;;;16.10;99.90;;;;;;5070761;28;20028;-71
2022/09/15 09:33:19;;;;;;;11.10;5.75;;;16.20;99.90;;;;;;5089093;28;20135;-71
2022/09/15 09:35:47;;;;;;;11.27;5.13;;;16.20;99.90;;;;;;5088816;28;20036;-70
2022/09/15 09:38:25;;;;;;;8.88;4.75;;;16.10;99.90;;;;;;5095763;28;20110;-72
2022/09/15 09:40:51;;;;;;;12.25;5.32;;;16.10;99.90;;;;;;5109209;28;20034;-70
2022/09/15 09:43:18;;;;;;;14.32;5.32;;;16.10;99.90;;;;;;5109353;28;20069;-70
2022/09/15 09:45:44;;;;;;;7.70;4.50;;;16.10;99.90;;;;;;5090063;28;20023;-70
2022/09/15 09:48:27;;;;;;;10.98;5.22;;;16.00;99.90;;;;;;5109179;28;20043;-70
2022/09/15 09:50:54;;;;;;;9.20;4.70;;;16.00;99.90;;;;;;5108746;28;20035;-70
2022/09/15 09:53:32;;;;;;;9.82;4.93;;;15.90;99.90;;;;;;5108995;28;20035;-70
2022/09/15 09:56:22;;;;;;;13.65;5.05;;;15.90;99.90;;;;;;5109095;28;20562;-70
2022/09/15 09:58:48;;;;;;;8.60;4.70;;;15.80;99.90;;;;;;5108991;28;20042;-70
2022/09/15 10:01:17;;;;;;;8.57;4.30;;;15.80;99.90;;;;;;5108935;28;20032;-70
2022/09/15 10:03:44;;;;;;;9.35;4.40;;;15.80;99.90;;;;;;5090062;28;20052;-70
2022/09/15 10:06:22;;;;;;;10.00;3.97;;;15.70;99.90;;;;;;5109134;28;20046;-70
2022/09/15 10:08:58;;;;;;;9.27;4.00;;;15.70;99.90;;;;;;5090390;28;20055;-71
2022/09/15 10:11:41;;;;;;;11.70;4.82;;;15.70;99.90;;;;;;5090402;28;20079;-70
2022/09/15 10:14:28;;;;;;;9.05;4.28;;;15.60;99.90;;;;;;5108613;28;20578;-70
2022/09/15 10:17:16;;;;;;;11.30;4.07;;;15.60;99.90;;;;;;5085110;28;20496;-71
2022/09/15 10:19:44;;;;;;;9.88;3.97;;;15.60;99.90;;;;;;5102207;27;20031;-69
2022/09/15 10:22:25;;;;;;;7.72;3.65;;;15.60;99.90;;;;;;5090049;28;20031;-70
2022/09/15 10:24:52;;;;;;;8.25;3.53;;;15.70;99.90;;;;;;5089653;28;20024;-70
2022/09/15 10:27:33;;;;;;;8.90;3.88;;;15.70;99.90;;;;;;5089223;28;20717;-69
2022/09/15 10:30:19;;;;;;;7.75;3.47;;;15.70;99.90;;;;;;5107714;27;20043;-70
2022/09/15 10:32:45;;;;;;;14.05;3.97;;;15.70;99.90;;;;;;5087737;28;20143;-70
2022/09/15 10:35:12;;;;;;;10.63;3.90;;;15.80;99.90;;;;;;5108476;28;20115;-71
2022/09/15 10:37:56;;;;;;;9.05;3.53;;;15.80;99.90;;;;;;5088697;28;20031;-71
2022/09/15 10:40:37;;;;;;;10.52;3.65;;;15.80;99.90;;;;;;5108348;28;20040;-70
2022/09/15 10:43:21;;;;;;;10.07;3.72;;;15.80;99.90;;;;;;5108380;28;20031;-71
2022/09/15 10:45:49;;;;;;;8.60;3.30;;;15.80;99.90;;;;;;5097218;28;20031;-70
2022/09/15 10:48:24;;;;;;;9.40;3.60;;;15.80;99.90;;;;;;5109055;28;20040;-71
2022/09/15 10:51:14;;;;;;;11.90;3.75;;;15.80;99.90;;;;;;5112612;28;20038;-70
2022/09/15 10:53:43;;;;;;;7.55;3.08;;;15.80;99.90;;;;;;5112067;28;20051;-71
2022/09/15 10:56:27;;;;;;;9.85;3.13;;;15.80;99.90;;;;;;5113686;27;20038;-70
2022/09/15 10:59:20;;;;;;;9.60;3.28;;;15.80;99.90;;;;;;5112021;28;20039;-70
2022/09/15 11:02:13;;;;;;;11.30;3.10;;;15.80;99.90;;;;;;5112192;28;20034;-70
2022/09/15 11:05:07;;;;;;;8.18;2.80;;;15.90;99.90;;;;;;5093699;28;20123;-70
2022/09/15 11:08:00;;;;;;;8.68;2.97;;;16.00;99.90;;;;;;5113615;27;20179;-70
2022/09/15 11:10:37;;;;;;;7.53;2.97;;;16.00;99.90;;;;;;5112206;28;20027;-70
2022/09/15 11:13:24;;;;;;;9.15;2.83;;;16.10;99.90;;;;;;5117495;27;20035;-69
2022/09/15 11:15:56;;;;;;;9.30;3.13;;;16.10;99.90;;;;;;5091885;28;20621;-70
2022/09/15 11:18:54;;;;;;;8.95;3.28;;;16.20;99.90;;;;;;5086721;28;20038;-70
2022/09/15 11:21:41;;;;;;;9.40;2.92;;;16.20;99.90;;;;;;5111144;28;20043;-69
2022/09/15 11:24:35;;;;;;;9.35;2.92;;;16.20;99.90;;;;;;5109951;28;20035;-70
2022/09/15 11:27:35;;;;;;;10.63;2.78;;;16.20;99.90;;;;;;5111561;28;20039;-70
2022/09/15 11:30:05;;;;;;;10.02;3.10;;;16.20;99.90;;;;;;5096091;28;20055;-69
2022/09/15 11:32:45;;;;;;;11.63;3.00;;;16.20;99.90;;;;;;5093057;28;20032;-70
2022/09/15 11:35:33;;;;;;;7.78;2.85;;;16.20;99.90;;;;;;5111260;28;20038;-70
2022/09/15 11:38:20;;;;;;;10.60;3.42;;;16.30;99.90;;;;;;5092945;28;20035;-69
2022/09/15 11:41:18;;;;;;;13.02;2.92;;;16.30;99.90;;;;;;5111628;28;20035;-70
2022/09/15 11:43:52;;;;;;;8.13;2.30;;;16.50;99.90;;;;;;5110350;28;20019;-70
2022/09/15 11:46:33;;;;;;;7.15;2.63;;;16.50;99.90;;;;;;5087229;28;20044;-69
2022/09/15 11:49:16;;;;;;;8.13;3.00;;;16.70;99.90;;;;;;5091171;28;20169;-70
2022/09/15 11:51:51;;;;;;;8.88;2.83;;;16.90;99.90;;;;;;5091140;28;20062;-69
2022/09/15 11:54:35;;;;;;;10.95;3.00;;;17.00;99.90;;;;;;5091030;28;20032;-70
2022/09/15 11:57:01;;;;;;;10.82;2.53;;;17.10;99.90;;;;;;5091268;28;20562;-71
2022/09/15 11:59:42;;;;;;;9.02;3.05;;;17.10;99.90;;;;;;5089146;28;20032;-70
2022/09/15 12:02:08;;;;;;;9.65;2.40;;;17.20;99.90;;;;;;5089518;28;20120;-72
2022/09/15 12:04:58;;;;;;;9.20;2.88;;;17.30;99.90;;;;;;5099227;28;20096;-69
2022/09/15 12:07:27;;;;;;;7.60;2.70;;;17.20;99.90;;;;;;5070507;28;20044;-69
2022/09/15 12:09:54;;;;;;;9.35;2.80;;;17.40;99.90;;;;;;5074048;28;20036;-71
2022/09/15 12:12:21;;;;;;;10.35;2.97;;;17.50;99.90;;;;;;5070366;28;20453;-71
2022/09/15 12:14:49;;;;;;;7.43;2.50;;;17.50;99.90;;;;;;5069986;28;20100;-70
2022/09/15 12:17:33;;;;;;;6.55;2.53;;;17.50;99.90;;;;;;5068608;28;20380;-69
2022/09/15 12:19:59;;;;;;;5.95;2.25;;;17.50;99.90;;;;;;5068870;28;20035;-69
2022/09/15 12:22:33;;;;;;;9.18;2.60;;;17.40;99.90;;;;;;5088914;28;20032;-71
2022/09/15 12:25:16;;;;;;;6.88;2.42;;;17.40;99.90;;;;;;5090279;28;20028;-70
2022/09/15 12:27:42;;;;;;;8.48;2.40;;;17.40;99.90;;;;;;5090399;28;20054;-70
2022/09/15 12:30:38;;;;;;;7.55;2.42;;;17.50;99.90;;;;;;5089942;28;20028;-70
2022/09/15 12:33:41;;;;;;;8.02;2.88;;;17.60;99.90;;;;;;5090049;28;20035;-69
2022/09/15 12:36:43;;;;;;;7.40;2.75;;;17.60;99.90;;;;;;5075401;28;20076;-70
2022/09/15 12:39:47;;;;;;;5.88;2.55;;;17.60;99.90;;;;;;5069641;28;20058;-69
2022/09/15 12:42:22;;;;;;;7.68;2.83;;;17.60;99.90;;;;;;5069777;28;20032;-69
2022/09/15 12:44:58;;;;;;;6.63;2.80;;;17.60;99.90;;;;;;5088436;28;20032;-70
2022/09/15 12:47:40;;;;;;;8.65;3.00;;;17.60;99.90;;;;;;5086709;28;20056;-70
2022/09/15 12:50:15;;;;;;;7.85;2.95;;;17.50;99.90;;;;;;5068106;28;20028;-70
2022/09/15 12:52:56;;;;;;;6.95;2.88;;;17.40;99.90;;;;;;5069677;28;20082;-70
2022/09/15 12:55:31;;;;;;;7.03;3.00;;;17.30;99.90;;;;;;5068120;28;20039;-72
2022/09/15 12:58:05;;;;;;;12.02;3.17;;;17.20;99.90;;;;;;5067882;28;20587;-72
2022/09/15 13:00:40;;;;;;;8.20;2.83;;;17.20;99.90;;;;;;5069476;28;20052;-70